createdAt,value
2022-10-16T00:01:19.259Z,100902.19
2022-10-16T00:03:48.594Z,100876.44
2022-10-16T00:06:17.591Z,100903.63
2022-10-16T00:08:45.408Z,100903.63
2022-10-16T00:11:18.698Z,100906.44
2022-10-16T00:13:47.824Z,100901.28
2022-10-16T00:16:15.287Z,100908.44
2022-10-16T00:18:43.357Z,100903.03
2022-10-16T00:21:16.833Z,100911.78
2022-10-16T00:23:44.730Z,100906.31
2022-10-16T00:26:16.497Z,100907.31
2022-10-16T00:28:46.363Z,100909.63
2022-10-16T00:31:14.791Z,100810.97
2022-10-16T00:33:42.839Z,100903.59
2022-10-16T00:36:14.105Z,100904.84
2022-10-16T00:38:41.729Z,100898.03
2022-10-16T00:41:13.612Z,100903.34
2022-10-16T00:43:56.238Z,100888.03
2022-10-16T00:46:29.142Z,100908.56
2022-10-16T00:49:02.805Z,100878.16
2022-10-16T00:51:53.769Z,100900.28
2022-10-16T00:54:24.927Z,100897.13
2022-10-16T00:56:52.669Z,100894.84
2022-10-16T00:59:26.442Z,100890.53
2022-10-16T01:01:55.260Z,100891.00
2022-10-16T01:04:23.818Z,100890.75
2022-10-16T01:07:15.403Z,100891.00
2022-10-16T01:10:19.165Z,100884.31
2022-10-16T01:13:34.244Z,100894.25
2022-10-16T01:16:59.280Z,100900.41
2022-10-16T01:19:52.481Z,100902.13
2022-10-16T01:22:24.994Z,100891.63
2022-10-16T01:24:56.215Z,100898.84
2022-10-16T01:27:36.382Z,100901.56
2022-10-16T01:30:24.665Z,100898.81
2022-10-16T01:32:58.709Z,100890.06
2022-10-16T01:35:33.567Z,100897.47
2022-10-16T01:38:28.107Z,100903.50
2022-10-16T01:41:00.937Z,100908.03
2022-10-16T01:43:54.570Z,100904.72
2022-10-16T01:46:24.151Z,100908.28
2022-10-16T01:48:53.632Z,100891.72
2022-10-16T01:51:22.060Z,100909.50
2022-10-16T01:53:54.636Z,100913.34
2022-10-16T01:56:24.432Z,100919.88
2022-10-16T01:58:56.982Z,100912.06
2022-10-16T02:01:28.099Z,100911.94
2022-10-16T02:03:59.737Z,100922.56
2022-10-16T02:06:27.429Z,100922.44
2022-10-16T02:08:55.341Z,100913.66
2022-10-16T02:11:24.515Z,100916.59
2022-10-16T02:14:05.411Z,100914.88
2022-10-16T02:16:45.273Z,100917.72
2022-10-16T02:19:14.370Z,100907.19
2022-10-16T02:21:48.331Z,100925.66
2022-10-16T02:24:38.434Z,100922.25
2022-10-16T02:27:14.743Z,100918.59
2022-10-16T02:29:49.645Z,100917.09
2022-10-16T02:32:20.906Z,100921.75
2022-10-16T02:34:50.607Z,100917.03
2022-10-16T02:37:19.399Z,100918.88
2022-10-16T02:39:46.854Z,100924.06
2022-10-16T02:42:15.608Z,100914.94
2022-10-16T02:44:42.952Z,100923.13
2022-10-16T02:47:10.332Z,100922.00
2022-10-16T02:49:37.652Z,100918.16
2022-10-16T02:52:05.111Z,100920.59
2022-10-16T02:54:32.446Z,100929.03
2022-10-16T02:56:59.792Z,100925.78
2022-10-16T02:59:27.061Z,100922.19
2022-10-16T03:01:54.384Z,100920.44
2022-10-16T03:04:21.778Z,100918.50
2022-10-16T03:06:49.027Z,100924.91
2022-10-16T03:09:16.458Z,100925.41
2022-10-16T03:11:43.802Z,100924.75
2022-10-16T03:14:11.172Z,100928.09
2022-10-16T03:16:38.882Z,100926.84
2022-10-16T03:19:06.271Z,100921.50
2022-10-16T03:21:33.591Z,100936.38
2022-10-16T03:24:00.970Z,100918.97
2022-10-16T03:26:28.280Z,100932.41
2022-10-16T03:28:55.710Z,100935.31
2022-10-16T03:31:23.559Z,100936.59
2022-10-16T03:33:50.913Z,100936.09
2022-10-16T03:36:18.487Z,100941.28
2022-10-16T03:38:45.822Z,100941.69
2022-10-16T03:41:13.151Z,100931.28
2022-10-16T03:43:40.574Z,100936.09
2022-10-16T03:46:07.923Z,100911.97
2022-10-16T03:48:35.167Z,100938.88
2022-10-16T03:51:02.585Z,100935.78
2022-10-16T03:53:30.047Z,100939.34
2022-10-16T03:55:57.293Z,100942.22
2022-10-16T03:58:24.646Z,100940.63
2022-10-16T04:00:52.122Z,100950.91
2022-10-16T04:03:20.320Z,100950.00
2022-10-16T04:05:47.626Z,100945.56
2022-10-16T04:08:15.005Z,100952.44
2022-10-16T04:10:44.990Z,100949.56
2022-10-16T04:13:13.493Z,100942.78
2022-10-16T04:15:40.936Z,100944.00
2022-10-16T04:18:08.588Z,100944.28
2022-10-16T04:20:35.966Z,100948.69
2022-10-16T04:23:03.752Z,100943.59
2022-10-16T04:25:31.896Z,100940.81
2022-10-16T04:27:59.375Z,100946.84
2022-10-16T04:30:27.035Z,100940.13
2022-10-16T04:32:54.941Z,100944.19
2022-10-16T04:35:23.005Z,100944.44
2022-10-16T04:37:51.874Z,100936.44
2022-10-16T04:40:19.192Z,100950.56
2022-10-16T04:42:46.633Z,100948.84
2022-10-16T04:45:16.421Z,100937.72
2022-10-16T04:47:44.920Z,100940.00
2022-10-16T04:50:12.417Z,100949.13
2022-10-16T04:52:39.985Z,100950.66
2022-10-16T04:55:08.265Z,100948.72
2022-10-16T04:57:35.627Z,100957.56
2022-10-16T05:00:04.491Z,100960.06
2022-10-16T05:02:33.175Z,100955.59
2022-10-16T05:05:00.765Z,100953.31
2022-10-16T05:07:28.430Z,100952.59
2022-10-16T05:09:55.922Z,100965.00
2022-10-16T05:12:24.969Z,100962.78
2022-10-16T05:14:52.374Z,100964.41
2022-10-16T05:17:19.677Z,100968.97
2022-10-16T05:19:47.133Z,100972.41
2022-10-16T05:22:14.486Z,100967.50
2022-10-16T05:24:41.809Z,100965.72
2022-10-16T05:27:09.144Z,100972.38
2022-10-16T05:29:36.453Z,100977.28
2022-10-16T05:32:04.139Z,100977.00
2022-10-16T05:34:31.552Z,100982.84
2022-10-16T05:36:58.867Z,100988.03
2022-10-16T05:39:26.157Z,100988.59
2022-10-16T05:41:54.688Z,100985.03
2022-10-16T05:44:23.088Z,100987.53
2022-10-16T05:46:50.408Z,100999.03
2022-10-16T05:49:17.764Z,100999.78
2022-10-16T05:51:45.197Z,101000.19
2022-10-16T05:54:12.832Z,101002.22
2022-10-16T05:56:40.346Z,101007.38
2022-10-16T05:59:07.817Z,101007.66
2022-10-16T06:01:36.547Z,101008.88
2022-10-16T06:04:04.256Z,101002.63
2022-10-16T06:06:32.193Z,101005.19
2022-10-16T06:09:00.999Z,101015.09
2022-10-16T06:11:31.270Z,101016.56
2022-10-16T06:14:02.987Z,101020.03
2022-10-16T06:16:30.780Z,101019.03
2022-10-16T06:18:58.494Z,101027.06
2022-10-16T06:21:26.946Z,101017.94
2022-10-16T06:23:55.862Z,101031.41
2022-10-16T06:26:25.564Z,101041.91
2022-10-16T06:28:52.949Z,101040.19
2022-10-16T06:31:20.446Z,101032.38
2022-10-16T06:33:52.468Z,101037.31
2022-10-16T06:36:20.308Z,101035.44
2022-10-16T06:38:49.556Z,101050.25
2022-10-16T06:41:19.737Z,101046.69
2022-10-16T06:43:48.122Z,101051.28
2022-10-16T06:46:19.473Z,101063.06
2022-10-16T06:48:47.054Z,101065.75
2022-10-16T06:51:19.211Z,101050.16
2022-10-16T06:54:06.409Z,101060.91
2022-10-16T06:56:37.163Z,101034.78
2022-10-16T06:59:04.710Z,101064.94
2022-10-16T07:01:32.643Z,101075.34
2022-10-16T07:04:00.159Z,101065.94
2022-10-16T07:06:28.580Z,101065.84
2022-10-16T07:08:55.959Z,101068.78
2022-10-16T07:11:25.050Z,101068.91
2022-10-16T07:13:56.057Z,101057.19
2022-10-16T07:16:29.432Z,101068.25
2022-10-16T07:19:01.304Z,101071.53
2022-10-16T07:21:32.011Z,101068.09
2022-10-16T07:24:02.515Z,101071.78
2022-10-16T07:26:32.554Z,101074.97
2022-10-16T07:29:00.298Z,101082.41
2022-10-16T07:31:28.665Z,101070.47
2022-10-16T07:33:56.502Z,101079.69
2022-10-16T07:36:23.939Z,101085.44
2022-10-16T07:38:57.172Z,101080.28
2022-10-16T07:41:27.423Z,101078.81
2022-10-16T07:43:55.873Z,101088.88
2022-10-16T07:46:24.582Z,101085.53
2022-10-16T07:48:52.116Z,101093.88
2022-10-16T07:51:22.533Z,101093.38
2022-10-16T07:53:50.866Z,101092.72
2022-10-16T07:56:19.759Z,101098.59
2022-10-16T07:58:47.232Z,101095.16
2022-10-16T08:01:16.541Z,101078.53
2022-10-16T08:03:45.715Z,101083.19
2022-10-16T08:06:13.299Z,101087.53
2022-10-16T08:08:40.869Z,101082.50
2022-10-16T08:11:09.343Z,101092.38
2022-10-16T08:13:36.937Z,101088.03
2022-10-16T08:16:09.041Z,101082.50
2022-10-16T08:18:37.885Z,101092.44
2022-10-16T08:21:06.414Z,101079.78
2022-10-16T08:23:34.880Z,101089.97
2022-10-16T08:26:08.205Z,101089.06
2022-10-16T08:28:36.718Z,101089.81
2022-10-16T08:31:23.309Z,101089.66
2022-10-16T08:33:50.927Z,101094.50
2022-10-16T08:36:18.446Z,101099.31
2022-10-16T08:38:48.610Z,101093.91
2022-10-16T08:42:04.698Z,101097.50
2022-10-16T08:44:47.213Z,101094.78
2022-10-16T08:47:35.491Z,101100.16
2022-10-16T08:50:11.629Z,101093.16
2022-10-16T08:52:43.349Z,101094.19
2022-10-16T08:55:42.887Z,101099.16
2022-10-16T08:58:22.958Z,101077.72
2022-10-16T09:01:14.645Z,101092.66
2022-10-16T09:04:23.887Z,101098.09
2022-10-16T09:07:18.447Z,101105.31
2022-10-16T09:10:31.618Z,101102.94
2022-10-16T09:13:36.088Z,101106.69
2022-10-16T09:16:25.754Z,101105.63
2022-10-16T09:19:06.313Z,101097.88
2022-10-16T09:21:39.457Z,101098.75
2022-10-16T09:24:12.595Z,101109.59
2022-10-16T09:26:40.013Z,101103.34
2022-10-16T09:29:07.574Z,101101.44
2022-10-16T09:31:38.193Z,101105.53
2022-10-16T09:34:08.160Z,101099.81
2022-10-16T09:36:44.359Z,101096.00
2022-10-16T09:39:13.315Z,101097.72
2022-10-16T09:41:46.593Z,101101.63
2022-10-16T09:44:30.876Z,101097.06
2022-10-16T09:47:24.816Z,101095.84
2022-10-16T09:49:54.434Z,101092.78
2022-10-16T09:52:22.360Z,101085.09
2022-10-16T09:55:00.237Z,101094.19
2022-10-16T09:57:31.396Z,101084.94
2022-10-16T10:00:00.171Z,101087.06
2022-10-16T10:02:44.714Z,101083.59
2022-10-16T10:05:24.534Z,101073.16
2022-10-16T10:08:01.294Z,101060.31
2022-10-16T10:10:31.623Z,101072.38
2022-10-16T10:12:59.739Z,101076.19
2022-10-16T10:15:30.525Z,101068.25
2022-10-16T10:17:59.424Z,101064.09
2022-10-16T10:20:33.950Z,101056.59
2022-10-16T10:23:03.039Z,101065.56
2022-10-16T10:25:55.727Z,101066.94
2022-10-16T10:28:39.864Z,101066.44
2022-10-16T10:31:34.432Z,101069.31
2022-10-16T10:34:43.578Z,101067.91
2022-10-16T10:37:44.617Z,101069.44
2022-10-16T10:40:32.165Z,101062.28
2022-10-16T10:43:32.221Z,101052.91
2022-10-16T10:46:08.017Z,101056.38
2022-10-16T10:49:09.781Z,101050.81
2022-10-16T10:51:43.828Z,101050.75
2022-10-16T10:54:22.420Z,101039.78
2022-10-16T10:56:53.483Z,101052.69
2022-10-16T10:59:26.522Z,101049.78
2022-10-16T11:01:57.681Z,101056.16
2022-10-16T11:04:41.842Z,101054.88
2022-10-16T11:07:19.877Z,101047.53
2022-10-16T11:09:54.723Z,101050.50
2022-10-16T11:12:48.610Z,101046.47
2022-10-16T11:15:26.674Z,101033.66
2022-10-16T11:18:01.652Z,101038.16
2022-10-16T11:20:36.151Z,101034.09
2022-10-16T11:23:23.901Z,101034.84
2022-10-16T11:25:52.897Z,101033.59
2022-10-16T11:28:44.311Z,101025.59
2022-10-16T11:31:22.384Z,101019.22
2022-10-16T11:34:07.264Z,101017.72
2022-10-16T11:36:45.936Z,101015.50
2022-10-16T11:39:26.496Z,101012.13
2022-10-16T11:42:04.743Z,101017.22
2022-10-16T11:45:02.194Z,101012.03
2022-10-16T11:48:06.072Z,101015.84
2022-10-16T11:50:44.828Z,101022.69
2022-10-16T11:53:23.320Z,101018.81
2022-10-16T11:55:50.906Z,101014.25
2022-10-16T11:58:24.947Z,101019.81
2022-10-16T12:01:10.829Z,101005.06
2022-10-16T12:03:48.063Z,101006.78
2022-10-16T12:06:28.932Z,101002.09
2022-10-16T12:08:57.889Z,101004.81
2022-10-16T12:11:35.235Z,101010.34
2022-10-16T12:14:09.327Z,101000.78
2022-10-16T12:16:39.842Z,101011.38
2022-10-16T12:19:17.379Z,100994.25
2022-10-16T12:21:46.221Z,100990.91
2022-10-16T12:24:32.401Z,100993.38
2022-10-16T12:27:00.124Z,101001.94
2022-10-16T12:29:39.961Z,100996.34
2022-10-16T12:32:46.771Z,100997.88
2022-10-16T12:35:28.078Z,101010.84
2022-10-16T12:38:06.019Z,100996.25
2022-10-16T12:40:37.804Z,100998.06
2022-10-16T12:43:45.704Z,100995.31
2022-10-16T12:46:12.922Z,100992.91
2022-10-16T12:48:55.321Z,100997.09
2022-10-16T12:51:29.489Z,101003.06
2022-10-16T12:54:04.551Z,101001.81
2022-10-16T12:56:56.090Z,101004.47
2022-10-16T13:00:00.532Z,100995.78
2022-10-16T13:02:50.846Z,101002.94
2022-10-16T13:05:45.840Z,100995.66
2022-10-16T13:08:40.935Z,101002.22
2022-10-16T13:11:29.186Z,100998.03
2022-10-16T13:14:23.345Z,100997.81
2022-10-16T13:17:14.999Z,101001.09
2022-10-16T13:19:56.761Z,101001.13
2022-10-16T13:23:05.393Z,101006.50
2022-10-16T13:25:48.811Z,101008.88
2022-10-16T13:28:20.699Z,101016.38
2022-10-16T13:30:56.211Z,101014.84
2022-10-16T13:33:35.228Z,101018.16
2022-10-16T13:36:03.711Z,101017.94
2022-10-16T13:38:37.143Z,101016.38
2022-10-16T13:41:16.387Z,101013.00
2022-10-16T13:43:50.875Z,101001.34
2022-10-16T13:46:20.642Z,101018.72
2022-10-16T13:49:23.483Z,101019.59
2022-10-16T13:52:01.385Z,101015.78
2022-10-16T13:54:32.592Z,101010.31
2022-10-16T13:57:22.553Z,101007.41
2022-10-16T13:59:54.837Z,101018.56
2022-10-16T14:02:29.105Z,101020.16
2022-10-16T14:04:58.999Z,101026.38
2022-10-16T14:07:32.831Z,101028.47
2022-10-16T14:10:24.557Z,101022.19
2022-10-16T14:13:04.413Z,101026.34
2022-10-16T14:15:34.070Z,101033.16
2022-10-16T14:18:01.603Z,101037.00
2022-10-16T14:20:34.469Z,101026.19
2022-10-16T14:23:20.301Z,101026.03
2022-10-16T14:25:48.291Z,101031.44
2022-10-16T14:28:24.300Z,101042.28
2022-10-16T14:31:01.351Z,101040.94
2022-10-16T14:33:31.532Z,101041.47
2022-10-16T14:36:12.660Z,101034.25
2022-10-16T14:38:42.811Z,101042.69
2022-10-16T14:41:10.958Z,101039.25
2022-10-16T14:43:41.207Z,101038.94
2022-10-16T14:46:16.043Z,101048.06
2022-10-16T14:48:52.231Z,101049.22
2022-10-16T14:51:21.024Z,101051.44
2022-10-16T14:53:48.993Z,101052.63
2022-10-16T14:56:22.326Z,101057.59
2022-10-16T14:58:51.941Z,101057.56
2022-10-16T15:01:22.013Z,101052.56
2022-10-16T15:03:50.007Z,101066.25
2022-10-16T15:06:17.829Z,101054.88
2022-10-16T15:08:45.515Z,101055.50
2022-10-16T15:11:18.271Z,101058.56
2022-10-16T15:13:45.804Z,101068.28
2022-10-16T15:16:16.145Z,101055.84
2022-10-16T15:18:44.132Z,101059.81
2022-10-16T15:21:26.093Z,101070.34
2022-10-16T15:23:53.547Z,101059.34
2022-10-16T15:26:20.942Z,101070.94
2022-10-16T15:28:48.395Z,101075.19
2022-10-16T15:31:15.881Z,101072.50
2022-10-16T15:33:43.279Z,101063.91
2022-10-16T15:36:10.804Z,101080.38
2022-10-16T15:38:38.211Z,101077.88
2022-10-16T15:41:05.835Z,101079.97
2022-10-16T15:43:33.107Z,101074.59
2022-10-16T15:46:02.760Z,101080.72
2022-10-16T15:48:31.131Z,101085.56
2022-10-16T15:50:58.563Z,101084.63
2022-10-16T15:53:25.954Z,101095.34
2022-10-16T15:55:53.309Z,101095.78
2022-10-16T15:58:20.757Z,101093.09
2022-10-16T16:00:57.997Z,101094.72
2022-10-16T16:03:25.733Z,101103.13
2022-10-16T16:05:53.266Z,101099.84
2022-10-16T16:08:20.692Z,101101.75
2022-10-16T16:11:02.125Z,101115.34
2022-10-16T16:13:29.775Z,101115.66
2022-10-16T16:15:57.296Z,101119.84
2022-10-16T16:18:25.092Z,101100.88
2022-10-16T16:20:53.089Z,101115.69
2022-10-16T16:23:21.200Z,101121.31
2022-10-16T16:26:07.453Z,101131.13
2022-10-16T16:28:35.537Z,101136.09
2022-10-16T16:31:03.348Z,101138.56
2022-10-16T16:33:31.989Z,101147.03
2022-10-16T16:36:00.903Z,101142.00
2022-10-16T16:38:29.478Z,101145.59
2022-10-16T16:40:57.126Z,101158.28
2022-10-16T16:43:26.261Z,101144.00
2022-10-16T16:45:55.562Z,101153.38
2022-10-16T16:48:23.431Z,101158.41
2022-10-16T16:50:50.689Z,101160.84
2022-10-16T16:53:18.377Z,101164.59
2022-10-16T16:55:47.097Z,101156.25
2022-10-16T16:58:14.499Z,101157.25
2022-10-16T17:00:56.625Z,101168.50
2022-10-16T17:03:30.986Z,101166.47
2022-10-16T17:06:03.123Z,101178.28
2022-10-16T17:08:31.238Z,101170.22
2022-10-16T17:10:58.987Z,101170.38
2022-10-16T17:13:28.332Z,101160.28
2022-10-16T17:15:56.132Z,101180.13
2022-10-16T17:18:25.152Z,101186.63
2022-10-16T17:20:52.715Z,101172.63
2022-10-16T17:23:21.160Z,101183.16
2022-10-16T17:25:48.561Z,101185.13
2022-10-16T17:28:15.854Z,101187.47
2022-10-16T17:30:44.327Z,101187.59
2022-10-16T17:33:13.401Z,101192.91
2022-10-16T17:35:43.645Z,101192.03
2022-10-16T17:38:12.821Z,101194.63
2022-10-16T17:40:40.735Z,101190.84
2022-10-16T17:43:08.565Z,101200.53
2022-10-16T17:45:39.525Z,101196.94
2022-10-16T17:48:07.309Z,101204.50
2022-10-16T17:50:37.461Z,101209.09
2022-10-16T17:53:04.792Z,101214.59
2022-10-16T17:55:32.148Z,101216.31
2022-10-16T17:57:59.477Z,101210.69
2022-10-16T18:00:26.921Z,101219.19
2022-10-16T18:02:54.219Z,101216.16
2022-10-16T18:05:21.538Z,101230.25
2022-10-16T18:07:48.895Z,101223.59
2022-10-16T18:10:18.841Z,101240.31
2022-10-16T18:12:58.173Z,101239.13
2022-10-16T18:15:25.511Z,101247.53
2022-10-16T18:17:52.881Z,101242.28
2022-10-16T18:20:20.963Z,101248.59
2022-10-16T18:22:48.411Z,101256.88
2022-10-16T18:25:15.681Z,101249.22
2022-10-16T18:27:43.021Z,101251.47
2022-10-16T18:30:10.673Z,101262.94
2022-10-16T18:32:38.060Z,101253.88
2022-10-16T18:35:05.990Z,101254.59
2022-10-16T18:37:36.802Z,101258.81
2022-10-16T18:40:05.158Z,101255.25
2022-10-16T18:42:32.500Z,101267.41
2022-10-16T18:45:00.768Z,101268.88
2022-10-16T18:47:29.902Z,101269.53
2022-10-16T18:49:57.431Z,101266.47
2022-10-16T18:52:27.083Z,101263.34
2022-10-16T18:54:57.671Z,101284.13
2022-10-16T18:57:28.317Z,101275.47
2022-10-16T18:59:56.879Z,101285.47
2022-10-16T19:02:24.617Z,101276.34
2022-10-16T19:04:52.148Z,101287.56
2022-10-16T19:07:19.473Z,101284.81
2022-10-16T19:09:46.856Z,101282.88
2022-10-16T19:12:14.112Z,101292.72
2022-10-16T19:14:41.546Z,101289.38
2022-10-16T19:17:09.062Z,101292.34
2022-10-16T19:19:38.522Z,101286.66
2022-10-16T19:22:14.192Z,101301.03
2022-10-16T19:24:42.180Z,101285.53
2022-10-16T19:27:09.594Z,101303.91
2022-10-16T19:29:37.060Z,101313.44
2022-10-16T19:32:07.254Z,101315.19
2022-10-16T19:34:35.036Z,101308.50
2022-10-16T19:37:02.379Z,101314.09
2022-10-16T19:39:29.864Z,101319.94
2022-10-16T19:41:57.290Z,101321.41
2022-10-16T19:44:24.722Z,101316.69
2022-10-16T19:46:52.068Z,101319.78
2022-10-16T19:49:21.969Z,101321.63
2022-10-16T19:51:52.084Z,101325.09
2022-10-16T19:54:20.239Z,101319.69
2022-10-16T19:56:47.748Z,101319.81
2022-10-16T19:59:19.283Z,101322.44
2022-10-16T20:01:47.435Z,101326.63
2022-10-16T20:04:15.442Z,101328.13
2022-10-16T20:06:43.010Z,101335.81
2022-10-16T20:09:10.602Z,101325.91
2022-10-16T20:11:38.632Z,101339.75
2022-10-16T20:14:06.058Z,101330.50
2022-10-16T20:16:33.643Z,101335.44
2022-10-16T20:19:01.635Z,101336.16
2022-10-16T20:21:31.993Z,101327.78
2022-10-16T20:24:01.502Z,101329.50
2022-10-16T20:26:29.060Z,101333.56
2022-10-16T20:28:56.668Z,101339.53
2022-10-16T20:31:27.434Z,101346.59
2022-10-16T20:33:56.830Z,101322.28
2022-10-16T20:36:26.517Z,101345.72
2022-10-16T20:38:54.581Z,101340.88
2022-10-16T20:41:22.092Z,101348.53
2022-10-16T20:43:52.635Z,101346.19
2022-10-16T20:46:25.272Z,101342.72
2022-10-16T20:48:54.395Z,101340.94
2022-10-16T20:51:25.127Z,101354.56
2022-10-16T20:53:58.073Z,101332.50
2022-10-16T20:56:26.815Z,101337.22
2022-10-16T20:58:54.459Z,101354.41
2022-10-16T21:01:24.476Z,101360.88
2022-10-16T21:03:55.044Z,101349.72
2022-10-16T21:06:23.684Z,101358.16
2022-10-16T21:08:51.728Z,101358.28
2022-10-16T21:11:25.119Z,101356.81
2022-10-16T21:13:54.541Z,101361.41
2022-10-16T21:16:22.805Z,101362.94
2022-10-16T21:18:50.432Z,101362.19
2022-10-16T21:21:27.318Z,101354.03
2022-10-16T21:23:55.152Z,101369.16
2022-10-16T21:26:26.568Z,101368.34
2022-10-16T21:28:56.833Z,101368.34
2022-10-16T21:31:24.507Z,101363.84
2022-10-16T21:33:53.143Z,101370.97
2022-10-16T21:36:22.741Z,101368.84
2022-10-16T21:38:50.380Z,101363.25
2022-10-16T21:41:17.573Z,101381.66
2022-10-16T21:43:45.296Z,101377.22
2022-10-16T21:46:13.446Z,101380.28
2022-10-16T21:48:43.024Z,101372.94
2022-10-16T21:51:12.530Z,101378.38
2022-10-16T21:53:40.705Z,101385.31
2022-10-16T21:56:18.606Z,101393.38
2022-10-16T21:58:46.136Z,101392.50
2022-10-16T22:01:17.947Z,101390.88
2022-10-16T22:03:46.734Z,101396.50
2022-10-16T22:06:16.184Z,101396.25
2022-10-16T22:08:45.411Z,101390.19
2022-10-16T22:11:22.067Z,101398.03
2022-10-16T22:13:54.084Z,101396.19
2022-10-16T22:16:26.844Z,101393.78
2022-10-16T22:18:56.051Z,101401.28
2022-10-16T22:21:24.581Z,101393.66
2022-10-16T22:23:51.959Z,101395.16
2022-10-16T22:26:19.354Z,101383.34
2022-10-16T22:28:46.783Z,101397.69
2022-10-16T22:31:15.241Z,101404.53
2022-10-16T22:33:43.001Z,101408.00
2022-10-16T22:36:15.534Z,101405.47
2022-10-16T22:38:42.878Z,101401.97
2022-10-16T22:41:13.318Z,101409.28
2022-10-16T22:43:44.143Z,101373.56
2022-10-16T22:46:20.287Z,101408.69
2022-10-16T22:48:47.731Z,101409.19
2022-10-16T22:51:17.081Z,101414.50
2022-10-16T22:53:46.347Z,101412.66
2022-10-16T22:56:15.252Z,101397.28
2022-10-16T22:58:42.780Z,101403.34
2022-10-16T23:01:13.394Z,101400.44
2022-10-16T23:03:43.614Z,101392.75
2022-10-16T23:06:11.890Z,101406.84
2022-10-16T23:08:39.433Z,101406.53
2022-10-16T23:11:12.701Z,101407.47
2022-10-16T23:13:45.589Z,101398.22
2022-10-16T23:16:15.652Z,101410.81
2022-10-16T23:18:43.874Z,101401.97
2022-10-16T23:21:14.293Z,101409.00
2022-10-16T23:23:42.679Z,101412.41
2022-10-16T23:26:16.830Z,101407.38
2022-10-16T23:28:44.923Z,101406.72
2022-10-16T23:31:13.942Z,101418.59
2022-10-16T23:33:41.683Z,101415.56
2022-10-16T23:36:12.438Z,101416.56
2022-10-16T23:38:40.161Z,101420.50
2022-10-16T23:41:07.919Z,101395.44
2022-10-16T23:43:36.041Z,101419.44
2022-10-16T23:46:03.964Z,101417.50
2022-10-16T23:48:31.430Z,101415.31
2022-10-16T23:50:58.764Z,101421.84
2022-10-16T23:53:26.435Z,101415.66
2022-10-16T23:55:53.771Z,101429.09
2022-10-16T23:58:21.407Z,101407.72
